sensor_id;sensor_type;location;lat;lon;timestamp;temperature;humidity
56542;DHT22;42438;53.174;6.730;2023-06-22T00:01:11;16.30;99.90
56542;DHT22;42438;53.174;6.730;2023-06-22T00:03:42;16.40;99.90
56542;DHT22;42438;53.174;6.730;2023-06-22T00:06:12;16.40;99.90
56542;DHT22;42438;53.174;6.730;2023-06-22T00:08:43;16.40;99.90
56542;DHT22;42438;53.174;6.730;2023-06-22T00:11:14;16.40;99.90
56542;DHT22;42438;53.174;6.730;2023-06-22T00:13:44;16.40;99.90
56542;DHT22;42438;53.174;6.730;2023-06-22T00:16:15;16.40;99.90
56542;DHT22;42438;53.174;6.730;2023-06-22T00:18:45;16.40;99.90
56542;DHT22;42438;53.174;6.730;2023-06-22T00:21:17;16.40;99.90
56542;DHT22;42438;53.174;6.730;2023-06-22T00:23:50;16.30;99.90
56542;DHT22;42438;53.174;6.730;2023-06-22T00:26:21;16.30;99.90
56542;DHT22;42438;53.174;6.730;2023-06-22T00:28:52;16.30;99.90
56542;DHT22;42438;53.174;6.730;2023-06-22T00:31:22;16.30;99.90
56542;DHT22;42438;53.174;6.730;2023-06-22T00:33:53;16.20;99.90
56542;DHT22;42438;53.174;6.730;2023-06-22T00:36:23;16.10;99.90
56542;DHT22;42438;53.174;6.730;2023-06-22T00:38:55;15.80;99.90
56542;DHT22;42438;53.174;6.730;2023-06-22T00:41:25;15.60;99.90
56542;DHT22;42438;53.174;6.730;2023-06-22T00:43:58;15.40;99.90
56542;DHT22;42438;53.174;6.730;2023-06-22T00:46:29;15.40;99.90
56542;DHT22;42438;53.174;6.730;2023-06-22T00:49:00;15.40;99.90
56542;DHT22;42438;53.174;6.730;2023-06-22T00:51:31;15.50;99.90
56542;DHT22;42438;53.174;6.730;2023-06-22T00:54:04;15.60;99.90
56542;DHT22;42438;53.174;6.730;2023-06-22T00:56:35;15.60;99.90
56542;DHT22;42438;53.174;6.730;2023-06-22T00:59:08;15.50;99.90
56542;DHT22;42438;53.174;6.730;2023-06-22T01:01:42;15.50;99.90
56542;DHT22;42438;53.174;6.730;2023-06-22T01:04:13;15.50;99.90
56542;DHT22;42438;53.174;6.730;2023-06-22T01:07:06;15.40;99.90
56542;DHT22;42438;53.174;6.730;2023-06-22T01:10:18;15.40;99.90
56542;DHT22;42438;53.174;6.730;2023-06-22T01:12:57;15.40;99.90
56542;DHT22;42438;53.174;6.730;2023-06-22T01:15:43;15.40;99.90
56542;DHT22;42438;53.174;6.730;2023-06-22T01:18:14;15.30;99.90
56542;DHT22;42438;53.174;6.730;2023-06-22T01:20:47;15.10;99.90
56542;DHT22;42438;53.174;6.730;2023-06-22T01:29:21;14.80;99.90
56542;DHT22;42438;53.174;6.730;2023-06-22T01:31:54;14.80;99.90
56542;DHT22;42438;53.174;6.730;2023-06-22T01:34:27;14.70;99.90
56542;DHT22;42438;53.174;6.730;2023-06-22T01:37:00;14.70;99.90
56542;DHT22;42438;53.174;6.730;2023-06-22T01:39:32;14.70;99.90
56542;DHT22;42438;53.174;6.730;2023-06-22T01:42:03;14.70;99.90
56542;DHT22;42438;53.174;6.730;2023-06-22T01:44:36;14.80;99.90
56542;DHT22;42438;53.174;6.730;2023-06-22T01:47:08;14.90;1.00
56542;DHT22;42438;53.174;6.730;2023-06-22T01:49:39;14.90;1.00
56542;DHT22;42438;53.174;6.730;2023-06-22T01:52:11;15.10;1.00
56542;DHT22;42438;53.174;6.730;2023-06-22T01:54:42;15.00;99.90
56542;DHT22;42438;53.174;6.730;2023-06-22T01:57:12;14.80;99.90
56542;DHT22;42438;53.174;6.730;2023-06-22T01:59:53;14.70;99.90
56542;DHT22;42438;53.174;6.730;2023-06-22T02:03:17;14.60;99.90
56542;DHT22;42438;53.174;6.730;2023-06-22T02:05:23;14.50;99.90
56542;DHT22;42438;53.174;6.730;2023-06-22T02:08:09;14.60;1.00
56542;DHT22;42438;53.174;6.730;2023-06-22T02:10:41;14.60;99.90
56542;DHT22;42438;53.174;6.730;2023-06-22T02:13:13;14.40;99.90
56542;DHT22;42438;53.174;6.730;2023-06-22T02:15:45;14.30;99.90
56542;DHT22;42438;53.174;6.730;2023-06-22T02:18:16;14.50;1.00
56542;DHT22;42438;53.174;6.730;2023-06-22T02:20:47;14.40;1.00
56542;DHT22;42438;53.174;6.730;2023-06-22T02:23:17;14.40;1.00
56542;DHT22;42438;53.174;6.730;2023-06-22T02:25:48;14.40;1.00
56542;DHT22;42438;53.174;6.730;2023-06-22T02:28:19;14.40;1.00
56542;DHT22;42438;53.174;6.730;2023-06-22T02:30:50;14.40;1.00
56542;DHT22;42438;53.174;6.730;2023-06-22T02:33:20;14.50;1.00
56542;DHT22;42438;53.174;6.730;2023-06-22T02:35:51;14.60;1.00
56542;DHT22;42438;53.174;6.730;2023-06-22T02:38:22;14.70;1.00
56542;DHT22;42438;53.174;6.730;2023-06-22T02:40:55;14.60;1.00
56542;DHT22;42438;53.174;6.730;2023-06-22T02:43:26;14.60;1.00
56542;DHT22;42438;53.174;6.730;2023-06-22T02:45:56;14.50;1.00
56542;DHT22;42438;53.174;6.730;2023-06-22T02:48:27;14.50;1.00
56542;DHT22;42438;53.174;6.730;2023-06-22T02:50:58;14.40;1.00
56542;DHT22;42438;53.174;6.730;2023-06-22T02:53:28;14.40;1.00
56542;DHT22;42438;53.174;6.730;2023-06-22T02:56:00;14.40;1.00
56542;DHT22;42438;53.174;6.730;2023-06-22T02:58:32;14.40;1.00
56542;DHT22;42438;53.174;6.730;2023-06-22T03:01:08;14.40;1.00
56542;DHT22;42438;53.174;6.730;2023-06-22T03:03:40;14.40;1.00
56542;DHT22;42438;53.174;6.730;2023-06-22T03:06:11;14.30;1.00
56542;DHT22;42438;53.174;6.730;2023-06-22T03:08:44;14.30;1.00
56542;DHT22;42438;53.174;6.730;2023-06-22T03:11:14;14.30;1.00
56542;DHT22;42438;53.174;6.730;2023-06-22T03:13:45;14.40;1.00
56542;DHT22;42438;53.174;6.730;2023-06-22T03:16:16;14.40;1.00
56542;DHT22;42438;53.174;6.730;2023-06-22T03:18:47;14.40;1.00
56542;DHT22;42438;53.174;6.730;2023-06-22T03:21:18;14.40;1.00
56542;DHT22;42438;53.174;6.730;2023-06-22T03:23:49;14.40;1.00
56542;DHT22;42438;53.174;6.730;2023-06-22T03:26:20;14.40;1.00
56542;DHT22;42438;53.174;6.730;2023-06-22T03:28:50;14.40;1.00
56542;DHT22;42438;53.174;6.730;2023-06-22T03:31:22;14.40;1.00
56542;DHT22;42438;53.174;6.730;2023-06-22T03:33:52;14.40;1.00
56542;DHT22;42438;53.174;6.730;2023-06-22T03:36:23;14.30;1.00
56542;DHT22;42438;53.174;6.730;2023-06-22T03:38:55;14.40;1.00
56542;DHT22;42438;53.174;6.730;2023-06-22T03:41:25;14.40;1.00
56542;DHT22;42438;53.174;6.730;2023-06-22T03:43:56;14.50;1.00
56542;DHT22;42438;53.174;6.730;2023-06-22T03:46:27;14.50;1.00
56542;DHT22;42438;53.174;6.730;2023-06-22T03:48:58;14.60;1.00
56542;DHT22;42438;53.174;6.730;2023-06-22T03:51:29;14.60;1.00
56542;DHT22;42438;53.174;6.730;2023-06-22T03:53:59;14.70;1.00
56542;DHT22;42438;53.174;6.730;2023-06-22T03:56:31;14.70;1.00
56542;DHT22;42438;53.174;6.730;2023-06-22T03:59:02;14.70;1.00
56542;DHT22;42438;53.174;6.730;2023-06-22T04:01:32;14.70;1.00
56542;DHT22;42438;53.174;6.730;2023-06-22T04:04:03;14.80;1.00
56542;DHT22;42438;53.174;6.730;2023-06-22T04:06:34;14.90;1.00
56542;DHT22;42438;53.174;6.730;2023-06-22T04:09:06;14.90;1.00
56542;DHT22;42438;53.174;6.730;2023-06-22T04:11:37;14.80;1.00
56542;DHT22;42438;53.174;6.730;2023-06-22T04:14:07;14.80;1.00
56542;DHT22;42438;53.174;6.730;2023-06-22T04:16:38;14.80;1.00
56542;DHT22;42438;53.174;6.730;2023-06-22T04:19:09;14.90;1.00
56542;DHT22;42438;53.174;6.730;2023-06-22T04:21:46;14.90;1.00
56542;DHT22;42438;53.174;6.730;2023-06-22T04:24:18;15.00;1.00
56542;DHT22;42438;53.174;6.730;2023-06-22T04:26:49;15.00;1.00
56542;DHT22;42438;53.174;6.730;2023-06-22T04:29:24;15.10;1.00
56542;DHT22;42438;53.174;6.730;2023-06-22T04:31:59;15.10;1.00
56542;DHT22;42438;53.174;6.730;2023-06-22T04:34:33;15.20;1.00
56542;DHT22;42438;53.174;6.730;2023-06-22T04:37:04;15.20;1.00
56542;DHT22;42438;53.174;6.730;2023-06-22T04:39:34;15.30;1.00
56542;DHT22;42438;53.174;6.730;2023-06-22T04:42:06;15.40;1.00
56542;DHT22;42438;53.174;6.730;2023-06-22T04:44:37;15.50;1.00
56542;DHT22;42438;53.174;6.730;2023-06-22T04:47:07;15.60;1.00
56542;DHT22;42438;53.174;6.730;2023-06-22T04:49:41;15.70;1.00
56542;DHT22;42438;53.174;6.730;2023-06-22T04:52:14;15.90;1.00
56542;DHT22;42438;53.174;6.730;2023-06-22T04:54:49;16.00;1.00
56542;DHT22;42438;53.174;6.730;2023-06-22T04:57:21;16.10;1.00
56542;DHT22;42438;53.174;6.730;2023-06-22T05:00:03;16.30;1.00
56542;DHT22;42438;53.174;6.730;2023-06-22T05:02:44;16.40;1.00
56542;DHT22;42438;53.174;6.730;2023-06-22T05:05:15;16.70;1.00
56542;DHT22;42438;53.174;6.730;2023-06-22T05:07:46;16.90;1.00
56542;DHT22;42438;53.174;6.730;2023-06-22T05:10:21;17.20;1.00
56542;DHT22;42438;53.174;6.730;2023-06-22T05:12:52;17.40;1.00
56542;DHT22;42438;53.174;6.730;2023-06-22T05:15:22;17.60;1.00
56542;DHT22;42438;53.174;6.730;2023-06-22T05:17:57;17.80;1.00
56542;DHT22;42438;53.174;6.730;2023-06-22T05:20:28;18.00;1.00
56542;DHT22;42438;53.174;6.730;2023-06-22T05:22:59;18.10;1.00
56542;DHT22;42438;53.174;6.730;2023-06-22T05:25:30;18.20;1.00
56542;DHT22;42438;53.174;6.730;2023-06-22T05:28:02;18.30;1.00
56542;DHT22;42438;53.174;6.730;2023-06-22T05:30:41;18.50;1.00
56542;DHT22;42438;53.174;6.730;2023-06-22T05:33:12;18.50;99.90
56542;DHT22;42438;53.174;6.730;2023-06-22T05:35:43;18.60;99.90
56542;DHT22;42438;53.174;6.730;2023-06-22T05:38:13;18.70;99.90
56542;DHT22;42438;53.174;6.730;2023-06-22T05:40:44;18.90;99.90
56542;DHT22;42438;53.174;6.730;2023-06-22T05:43:15;19.20;99.90
56542;DHT22;42438;53.174;6.730;2023-06-22T05:45:46;20.10;99.90
56542;DHT22;42438;53.174;6.730;2023-06-22T05:48:16;21.20;99.90
56542;DHT22;42438;53.174;6.730;2023-06-22T05:50:47;22.00;99.90
56542;DHT22;42438;53.174;6.730;2023-06-22T05:53:18;22.60;99.90
56542;DHT22;42438;53.174;6.730;2023-06-22T05:55:48;23.10;99.90
56542;DHT22;42438;53.174;6.730;2023-06-22T05:58:19;23.40;1.00
56542;DHT22;42438;53.174;6.730;2023-06-22T06:00:49;23.70;99.90
56542;DHT22;42438;53.174;6.730;2023-06-22T06:03:20;23.90;99.90
56542;DHT22;42438;53.174;6.730;2023-06-22T06:05:51;23.90;99.90
56542;DHT22;42438;53.174;6.730;2023-06-22T06:08:22;24.00;19.70
56542;DHT22;42438;53.174;6.730;2023-06-22T06:10:52;24.30;1.00
56542;DHT22;42438;53.174;6.730;2023-06-22T06:13:24;24.50;99.90
56542;DHT22;42438;53.174;6.730;2023-06-22T06:15:55;24.60;99.90
56542;DHT22;42438;53.174;6.730;2023-06-22T06:18:26;24.70;99.90
56542;DHT22;42438;53.174;6.730;2023-06-22T06:20:57;24.90;99.90
56542;DHT22;42438;53.174;6.730;2023-06-22T06:23:27;25.00;99.90
56542;DHT22;42438;53.174;6.730;2023-06-22T06:25:58;25.20;99.90
56542;DHT22;42438;53.174;6.730;2023-06-22T06:28:28;25.20;99.90
56542;DHT22;42438;53.174;6.730;2023-06-22T06:30:59;25.10;99.90
56542;DHT22;42438;53.174;6.730;2023-06-22T06:33:30;24.70;99.90
56542;DHT22;42438;53.174;6.730;2023-06-22T06:36:02;24.20;99.90
56542;DHT22;42438;53.174;6.730;2023-06-22T06:38:33;23.70;99.90
56542;DHT22;42438;53.174;6.730;2023-06-22T06:41:04;23.50;99.90
56542;DHT22;42438;53.174;6.730;2023-06-22T06:43:35;23.20;99.90
56542;DHT22;42438;53.174;6.730;2023-06-22T06:46:05;23.20;99.90
56542;DHT22;42438;53.174;6.730;2023-06-22T06:48:36;23.20;99.90
56542;DHT22;42438;53.174;6.730;2023-06-22T06:51:07;23.20;99.90
56542;DHT22;42438;53.174;6.730;2023-06-22T06:53:39;23.20;99.90
56542;DHT22;42438;53.174;6.730;2023-06-22T06:56:10;23.10;99.90
56542;DHT22;42438;53.174;6.730;2023-06-22T06:58:41;23.00;99.90
56542;DHT22;42438;53.174;6.730;2023-06-22T07:01:13;22.90;99.90
56542;DHT22;42438;53.174;6.730;2023-06-22T07:03:43;22.90;1.00
56542;DHT22;42438;53.174;6.730;2023-06-22T07:06:14;23.10;1.00
56542;DHT22;42438;53.174;6.730;2023-06-22T07:08:45;23.20;99.90
56542;DHT22;42438;53.174;6.730;2023-06-22T07:11:15;23.30;99.90
56542;DHT22;42438;53.174;6.730;2023-06-22T07:13:46;23.30;99.90
56542;DHT22;42438;53.174;6.730;2023-06-22T07:16:17;23.30;99.90
56542;DHT22;42438;53.174;6.730;2023-06-22T07:18:48;23.40;99.90
56542;DHT22;42438;53.174;6.730;2023-06-22T07:21:19;23.30;99.90
56542;DHT22;42438;53.174;6.730;2023-06-22T07:23:50;23.30;99.90
56542;DHT22;42438;53.174;6.730;2023-06-22T07:26:20;23.30;99.90
56542;DHT22;42438;53.174;6.730;2023-06-22T07:28:51;23.30;99.90
56542;DHT22;42438;53.174;6.730;2023-06-22T07:31:24;23.30;99.90
56542;DHT22;42438;53.174;6.730;2023-06-22T07:33:55;23.30;99.90
56542;DHT22;42438;53.174;6.730;2023-06-22T07:36:25;23.30;90.90
56542;DHT22;42438;53.174;6.730;2023-06-22T07:38:56;23.30;99.90
56542;DHT22;42438;53.174;6.730;2023-06-22T07:41:27;23.30;99.90
56542;DHT22;42438;53.174;6.730;2023-06-22T07:43:57;23.20;99.90
56542;DHT22;42438;53.174;6.730;2023-06-22T07:46:28;23.10;99.90
56542;DHT22;42438;53.174;6.730;2023-06-22T07:49:00;23.10;99.90
56542;DHT22;42438;53.174;6.730;2023-06-22T07:51:31;23.10;99.90
56542;DHT22;42438;53.174;6.730;2023-06-22T07:54:02;23.20;99.90
56542;DHT22;42438;53.174;6.730;2023-06-22T07:56:33;23.40;99.90
56542;DHT22;42438;53.174;6.730;2023-06-22T07:59:04;23.50;98.00
56542;DHT22;42438;53.174;6.730;2023-06-22T08:01:34;23.60;96.50
56542;DHT22;42438;53.174;6.730;2023-06-22T08:04:05;23.70;95.20
56542;DHT22;42438;53.174;6.730;2023-06-22T08:06:36;23.80;66.90
56542;DHT22;42438;53.174;6.730;2023-06-22T08:09:07;23.80;55.50
56542;DHT22;42438;53.174;6.730;2023-06-22T08:11:37;23.90;46.00
56542;DHT22;42438;53.174;6.730;2023-06-22T08:14:08;23.90;37.70
56542;DHT22;42438;53.174;6.730;2023-06-22T08:16:38;24.00;22.70
56542;DHT22;42438;53.174;6.730;2023-06-22T08:19:09;24.10;13.20
56542;DHT22;42438;53.174;6.730;2023-06-22T08:21:40;24.10;1.00
56542;DHT22;42438;53.174;6.730;2023-06-22T08:24:10;24.20;1.00
56542;DHT22;42438;53.174;6.730;2023-06-22T08:26:41;24.20;1.00
56542;DHT22;42438;53.174;6.730;2023-06-22T08:29:12;24.20;1.00
56542;DHT22;42438;53.174;6.730;2023-06-22T08:31:42;24.30;1.00
56542;DHT22;42438;53.174;6.730;2023-06-22T08:34:13;24.30;1.00
56542;DHT22;42438;53.174;6.730;2023-06-22T08:36:44;24.40;1.00
56542;DHT22;42438;53.174;6.730;2023-06-22T08:39:15;24.50;1.00
56542;DHT22;42438;53.174;6.730;2023-06-22T08:41:47;24.50;1.00
56542;DHT22;42438;53.174;6.730;2023-06-22T08:44:18;24.70;1.00
56542;DHT22;42438;53.174;6.730;2023-06-22T08:46:49;24.80;1.00
56542;DHT22;42438;53.174;6.730;2023-06-22T08:49:20;24.90;1.00
56542;DHT22;42438;53.174;6.730;2023-06-22T08:51:51;25.00;1.00
56542;DHT22;42438;53.174;6.730;2023-06-22T08:54:23;25.00;1.00
56542;DHT22;42438;53.174;6.730;2023-06-22T08:56:54;25.20;1.00
56542;DHT22;42438;53.174;6.730;2023-06-22T08:59:25;25.40;1.00
56542;DHT22;42438;53.174;6.730;2023-06-22T09:01:55;25.40;1.00
56542;DHT22;42438;53.174;6.730;2023-06-22T09:04:27;25.40;1.00
56542;DHT22;42438;53.174;6.730;2023-06-22T09:06:57;25.60;1.00
56542;DHT22;42438;53.174;6.730;2023-06-22T09:09:28;25.60;1.00
56542;DHT22;42438;53.174;6.730;2023-06-22T09:11:59;25.60;1.00
56542;DHT22;42438;53.174;6.730;2023-06-22T09:14:29;25.60;1.00
56542;DHT22;42438;53.174;6.730;2023-06-22T09:17:00;25.70;1.00
56542;DHT22;42438;53.174;6.730;2023-06-22T09:19:31;25.70;1.00
56542;DHT22;42438;53.174;6.730;2023-06-22T09:22:01;25.90;1.00
56542;DHT22;42438;53.174;6.730;2023-06-22T09:24:32;26.00;1.00
56542;DHT22;42438;53.174;6.730;2023-06-22T09:27:03;25.90;1.00
56542;DHT22;42438;53.174;6.730;2023-06-22T09:29:34;26.00;1.00
56542;DHT22;42438;53.174;6.730;2023-06-22T09:32:05;25.90;1.00
56542;DHT22;42438;53.174;6.730;2023-06-22T09:34:35;25.70;1.00
56542;DHT22;42438;53.174;6.730;2023-06-22T09:37:06;25.80;1.00
56542;DHT22;42438;53.174;6.730;2023-06-22T09:39:37;25.80;1.00
56542;DHT22;42438;53.174;6.730;2023-06-22T09:42:08;25.90;1.00
56542;DHT22;42438;53.174;6.730;2023-06-22T09:44:38;26.10;1.00
56542;DHT22;42438;53.174;6.730;2023-06-22T09:47:09;26.10;1.00
56542;DHT22;42438;53.174;6.730;2023-06-22T09:49:40;26.20;1.00
56542;DHT22;42438;53.174;6.730;2023-06-22T09:52:11;26.40;1.00
56542;DHT22;42438;53.174;6.730;2023-06-22T09:54:41;26.50;1.00
56542;DHT22;42438;53.174;6.730;2023-06-22T09:57:12;26.70;1.00
56542;DHT22;42438;53.174;6.730;2023-06-22T09:59:43;26.70;1.00
56542;DHT22;42438;53.174;6.730;2023-06-22T10:02:14;26.70;1.00
56542;DHT22;42438;53.174;6.730;2023-06-22T10:04:44;26.70;1.00
56542;DHT22;42438;53.174;6.730;2023-06-22T10:07:15;26.80;1.00
56542;DHT22;42438;53.174;6.730;2023-06-22T10:09:46;26.90;1.00
56542;DHT22;42438;53.174;6.730;2023-06-22T10:12:16;27.00;1.00
56542;DHT22;42438;53.174;6.730;2023-06-22T10:14:47;27.00;1.00
56542;DHT22;42438;53.174;6.730;2023-06-22T10:17:18;27.10;1.00
56542;DHT22;42438;53.174;6.730;2023-06-22T10:19:48;27.20;1.00
56542;DHT22;42438;53.174;6.730;2023-06-22T10:22:19;27.40;1.00
56542;DHT22;42438;53.174;6.730;2023-06-22T10:24:50;27.40;1.00
56542;DHT22;42438;53.174;6.730;2023-06-22T10:27:20;27.30;1.00
56542;DHT22;42438;53.174;6.730;2023-06-22T10:29:51;27.50;1.00
56542;DHT22;42438;53.174;6.730;2023-06-22T10:32:22;27.50;1.00
56542;DHT22;42438;53.174;6.730;2023-06-22T10:34:52;27.50;1.00
56542;DHT22;42438;53.174;6.730;2023-06-22T10:37:23;27.60;1.00
56542;DHT22;42438;53.174;6.730;2023-06-22T10:39:54;27.70;1.00
56542;DHT22;42438;53.174;6.730;2023-06-22T10:42:24;27.80;1.00
56542;DHT22;42438;53.174;6.730;2023-06-22T10:44:55;27.80;1.00
56542;DHT22;42438;53.174;6.730;2023-06-22T10:47:25;27.80;1.00
56542;DHT22;42438;53.174;6.730;2023-06-22T10:49:56;27.60;1.00
56542;DHT22;42438;53.174;6.730;2023-06-22T10:52:27;27.70;1.00
56542;DHT22;42438;53.174;6.730;2023-06-22T10:54:58;27.80;1.00
56542;DHT22;42438;53.174;6.730;2023-06-22T10:57:28;28.00;1.00
56542;DHT22;42438;53.174;6.730;2023-06-22T10:59:59;28.20;1.00
56542;DHT22;42438;53.174;6.730;2023-06-22T11:02:30;28.50;1.00
56542;DHT22;42438;53.174;6.730;2023-06-22T11:05:00;28.50;1.00
56542;DHT22;42438;53.174;6.730;2023-06-22T11:07:31;28.10;1.00
56542;DHT22;42438;53.174;6.730;2023-06-22T11:10:03;28.00;1.00
56542;DHT22;42438;53.174;6.730;2023-06-22T11:12:34;28.00;1.00
56542;DHT22;42438;53.174;6.730;2023-06-22T11:15:05;27.90;1.00
56542;DHT22;42438;53.174;6.730;2023-06-22T11:17:36;27.80;1.00
56542;DHT22;42438;53.174;6.730;2023-06-22T11:20:07;28.10;1.00
56542;DHT22;42438;53.174;6.730;2023-06-22T11:22:41;28.20;1.00
56542;DHT22;42438;53.174;6.730;2023-06-22T11:25:12;28.40;1.00
56542;DHT22;42438;53.174;6.730;2023-06-22T11:27:42;28.30;1.00
56542;DHT22;42438;53.174;6.730;2023-06-22T11:30:13;28.30;1.00
56542;DHT22;42438;53.174;6.730;2023-06-22T11:32:44;28.30;1.00
56542;DHT22;42438;53.174;6.730;2023-06-22T11:35:14;28.20;1.00
56542;DHT22;42438;53.174;6.730;2023-06-22T11:37:45;28.00;1.00
56542;DHT22;42438;53.174;6.730;2023-06-22T11:40:16;27.70;1.00
56542;DHT22;42438;53.174;6.730;2023-06-22T11:42:48;27.50;1.00
56542;DHT22;42438;53.174;6.730;2023-06-22T11:45:18;27.30;1.00
56542;DHT22;42438;53.174;6.730;2023-06-22T11:47:50;27.20;1.00
56542;DHT22;42438;53.174;6.730;2023-06-22T11:50:22;27.20;1.00
56542;DHT22;42438;53.174;6.730;2023-06-22T11:52:52;27.30;1.00
56542;DHT22;42438;53.174;6.730;2023-06-22T11:55:23;27.10;1.00
56542;DHT22;42438;53.174;6.730;2023-06-22T11:57:58;27.00;1.00
56542;DHT22;42438;53.174;6.730;2023-06-22T12:00:33;27.10;1.00
56542;DHT22;42438;53.174;6.730;2023-06-22T12:03:04;27.10;1.00
56542;DHT22;42438;53.174;6.730;2023-06-22T12:05:35;27.00;1.00
56542;DHT22;42438;53.174;6.730;2023-06-22T12:08:05;27.20;1.00
56542;DHT22;42438;53.174;6.730;2023-06-22T12:10:36;27.20;1.00
56542;DHT22;42438;53.174;6.730;2023-06-22T12:13:07;27.20;1.00
56542;DHT22;42438;53.174;6.730;2023-06-22T12:15:37;27.30;1.00
56542;DHT22;42438;53.174;6.730;2023-06-22T12:18:08;27.20;1.00
56542;DHT22;42438;53.174;6.730;2023-06-22T12:20:39;27.20;1.00
56542;DHT22;42438;53.174;6.730;2023-06-22T12:23:10;27.10;1.00
56542;DHT22;42438;53.174;6.730;2023-06-22T12:25:40;27.20;1.00
56542;DHT22;42438;53.174;6.730;2023-06-22T12:28:11;27.10;1.00
56542;DHT22;42438;53.174;6.730;2023-06-22T12:30:42;27.10;1.00
56542;DHT22;42438;53.174;6.730;2023-06-22T12:33:12;27.00;1.00
56542;DHT22;42438;53.174;6.730;2023-06-22T12:35:43;26.90;1.00
56542;DHT22;42438;53.174;6.730;2023-06-22T12:38:15;26.90;1.00
56542;DHT22;42438;53.174;6.730;2023-06-22T12:40:46;26.80;1.00
56542;DHT22;42438;53.174;6.730;2023-06-22T12:43:17;26.60;1.00
56542;DHT22;42438;53.174;6.730;2023-06-22T12:45:48;26.40;1.00
56542;DHT22;42438;53.174;6.730;2023-06-22T12:48:19;26.40;1.00
56542;DHT22;42438;53.174;6.730;2023-06-22T12:50:49;26.50;1.00
56542;DHT22;42438;53.174;6.730;2023-06-22T12:53:20;26.60;1.00
56542;DHT22;42438;53.174;6.730;2023-06-22T12:55:53;26.60;1.00
56542;DHT22;42438;53.174;6.730;2023-06-22T12:58:23;26.40;1.00
56542;DHT22;42438;53.174;6.730;2023-06-22T13:00:54;26.40;1.00
56542;DHT22;42438;53.174;6.730;2023-06-22T13:03:24;26.30;1.00
56542;DHT22;42438;53.174;6.730;2023-06-22T13:05:57;26.30;1.00
56542;DHT22;42438;53.174;6.730;2023-06-22T13:08:27;26.20;1.00
56542;DHT22;42438;53.174;6.730;2023-06-22T13:10:58;26.20;1.00
56542;DHT22;42438;53.174;6.730;2023-06-22T13:13:29;26.10;1.00
56542;DHT22;42438;53.174;6.730;2023-06-22T13:16:00;26.10;1.00
56542;DHT22;42438;53.174;6.730;2023-06-22T13:18:30;26.10;1.00
56542;DHT22;42438;53.174;6.730;2023-06-22T13:21:02;26.00;1.00
56542;DHT22;42438;53.174;6.730;2023-06-22T13:23:32;25.80;1.00
56542;DHT22;42438;53.174;6.730;2023-06-22T13:26:04;25.70;1.00
56542;DHT22;42438;53.174;6.730;2023-06-22T13:28:35;25.60;1.00
56542;DHT22;42438;53.174;6.730;2023-06-22T13:31:05;25.50;1.00
56542;DHT22;42438;53.174;6.730;2023-06-22T13:33:37;25.30;1.00
56542;DHT22;42438;53.174;6.730;2023-06-22T13:36:08;25.30;1.00
56542;DHT22;42438;53.174;6.730;2023-06-22T13:38:39;25.30;1.00
56542;DHT22;42438;53.174;6.730;2023-06-22T13:41:10;25.20;1.00
56542;DHT22;42438;53.174;6.730;2023-06-22T13:43:40;25.20;1.00
56542;DHT22;42438;53.174;6.730;2023-06-22T13:46:11;25.20;1.00
56542;DHT22;42438;53.174;6.730;2023-06-22T13:48:42;25.20;1.00
56542;DHT22;42438;53.174;6.730;2023-06-22T13:51:12;25.20;1.00
56542;DHT22;42438;53.174;6.730;2023-06-22T13:53:43;25.10;1.00
56542;DHT22;42438;53.174;6.730;2023-06-22T13:56:14;25.10;1.00
56542;DHT22;42438;53.174;6.730;2023-06-22T13:58:44;25.00;1.00
56542;DHT22;42438;53.174;6.730;2023-06-22T14:01:15;24.90;1.00
56542;DHT22;42438;53.174;6.730;2023-06-22T14:03:47;24.90;1.00
56542;DHT22;42438;53.174;6.730;2023-06-22T14:06:18;24.70;1.00
56542;DHT22;42438;53.174;6.730;2023-06-22T14:08:49;24.60;1.00
56542;DHT22;42438;53.174;6.730;2023-06-22T14:11:21;24.50;1.00
56542;DHT22;42438;53.174;6.730;2023-06-22T14:13:52;24.40;1.00
56542;DHT22;42438;53.174;6.730;2023-06-22T14:16:23;24.30;1.00
56542;DHT22;42438;53.174;6.730;2023-06-22T14:18:53;24.30;1.00
56542;DHT22;42438;53.174;6.730;2023-06-22T14:21:25;24.20;1.00
56542;DHT22;42438;53.174;6.730;2023-06-22T14:23:56;24.10;1.00
56542;DHT22;42438;53.174;6.730;2023-06-22T14:26:27;24.10;1.00
56542;DHT22;42438;53.174;6.730;2023-06-22T14:28:57;23.90;1.00
56542;DHT22;42438;53.174;6.730;2023-06-22T14:31:28;23.90;1.00
56542;DHT22;42438;53.174;6.730;2023-06-22T14:34:00;23.90;1.00
56542;DHT22;42438;53.174;6.730;2023-06-22T14:36:30;23.90;1.00
56542;DHT22;42438;53.174;6.730;2023-06-22T14:39:01;23.80;1.00
56542;DHT22;42438;53.174;6.730;2023-06-22T14:41:32;23.80;1.00
56542;DHT22;42438;53.174;6.730;2023-06-22T14:44:03;23.80;1.00
56542;DHT22;42438;53.174;6.730;2023-06-22T14:46:33;23.80;1.00
56542;DHT22;42438;53.174;6.730;2023-06-22T14:49:04;23.70;1.00
56542;DHT22;42438;53.174;6.730;2023-06-22T14:51:35;23.60;1.00
56542;DHT22;42438;53.174;6.730;2023-06-22T14:54:05;23.70;1.00
56542;DHT22;42438;53.174;6.730;2023-06-22T14:56:36;23.70;1.00
56542;DHT22;42438;53.174;6.730;2023-06-22T14:59:07;23.60;1.00
56542;DHT22;42438;53.174;6.730;2023-06-22T15:01:39;23.60;1.00
56542;DHT22;42438;53.174;6.730;2023-06-22T15:04:09;23.50;1.00
56542;DHT22;42438;53.174;6.730;2023-06-22T15:06:40;23.40;1.00
56542;DHT22;42438;53.174;6.730;2023-06-22T15:09:11;23.40;1.00
56542;DHT22;42438;53.174;6.730;2023-06-22T15:11:41;23.30;1.00
56542;DHT22;42438;53.174;6.730;2023-06-22T15:14:13;23.20;1.00
56542;DHT22;42438;53.174;6.730;2023-06-22T15:16:44;23.10;1.00
56542;DHT22;42438;53.174;6.730;2023-06-22T15:19:15;23.10;1.00
56542;DHT22;42438;53.174;6.730;2023-06-22T15:21:46;23.00;1.00
56542;DHT22;42438;53.174;6.730;2023-06-22T15:24:16;23.00;1.00
56542;DHT22;42438;53.174;6.730;2023-06-22T15:26:47;22.90;1.00
56542;DHT22;42438;53.174;6.730;2023-06-22T15:29:18;22.80;1.00
56542;DHT22;42438;53.174;6.730;2023-06-22T15:31:48;22.80;1.00
56542;DHT22;42438;53.174;6.730;2023-06-22T15:34:19;22.80;1.00
56542;DHT22;42438;53.174;6.730;2023-06-22T15:36:50;22.70;1.00
56542;DHT22;42438;53.174;6.730;2023-06-22T15:39:20;22.70;1.00
56542;DHT22;42438;53.174;6.730;2023-06-22T15:41:53;22.80;1.00
56542;DHT22;42438;53.174;6.730;2023-06-22T15:44:24;22.80;1.00
56542;DHT22;42438;53.174;6.730;2023-06-22T15:46:55;22.80;1.00
56542;DHT22;42438;53.174;6.730;2023-06-22T15:49:25;22.80;1.00
56542;DHT22;42438;53.174;6.730;2023-06-22T15:51:58;22.80;1.00
56542;DHT22;42438;53.174;6.730;2023-06-22T15:54:28;22.70;1.00
56542;DHT22;42438;53.174;6.730;2023-06-22T15:56:59;22.60;1.00
56542;DHT22;42438;53.174;6.730;2023-06-22T15:59:30;22.50;1.00
56542;DHT22;42438;53.174;6.730;2023-06-22T16:02:01;22.50;1.00
56542;DHT22;42438;53.174;6.730;2023-06-22T16:04:32;22.40;1.00
56542;DHT22;42438;53.174;6.730;2023-06-22T16:07:03;22.30;1.00
56542;DHT22;42438;53.174;6.730;2023-06-22T16:09:34;22.30;1.00
56542;DHT22;42438;53.174;6.730;2023-06-22T16:12:05;22.20;1.00
56542;DHT22;42438;53.174;6.730;2023-06-22T16:14:35;22.10;1.00